sensor_id;sensor_type;location;lat;lon;timestamp;temperature;humidity
5868;DHT22;2960;49.142;7.768;2023-09-07T00:01:58;19.00;61.60
5868;DHT22;2960;49.142;7.768;2023-09-07T00:04:26;19.00;61.60
5868;DHT22;2960;49.142;7.768;2023-09-07T00:06:53;19.00;61.60
5868;DHT22;2960;49.142;7.768;2023-09-07T00:09:20;18.90;61.60
5868;DHT22;2960;49.142;7.768;2023-09-07T00:11:50;18.90;61.70
5868;DHT22;2960;49.142;7.768;2023-09-07T00:14:17;18.90;61.70
5868;DHT22;2960;49.142;7.768;2023-09-07T00:16:44;18.80;61.60
5868;DHT22;2960;49.142;7.768;2023-09-07T00:19:11;18.90;61.70
5868;DHT22;2960;49.142;7.768;2023-09-07T00:21:38;18.80;61.60
5868;DHT22;2960;49.142;7.768;2023-09-07T00:24:06;18.80;61.80
5868;DHT22;2960;49.142;7.768;2023-09-07T00:26:33;18.80;61.90
5868;DHT22;2960;49.142;7.768;2023-09-07T00:29:02;18.70;61.80
5868;DHT22;2960;49.142;7.768;2023-09-07T00:31:29;18.70;61.80
5868;DHT22;2960;49.142;7.768;2023-09-07T00:33:56;18.70;61.90
5868;DHT22;2960;49.142;7.768;2023-09-07T00:36:23;18.70;61.90
5868;DHT22;2960;49.142;7.768;2023-09-07T00:38:50;18.60;61.90
5868;DHT22;2960;49.142;7.768;2023-09-07T00:41:17;18.60;61.80
5868;DHT22;2960;49.142;7.768;2023-09-07T00:43:44;18.50;61.70
5868;DHT22;2960;49.142;7.768;2023-09-07T00:46:13;18.50;61.80
5868;DHT22;2960;49.142;7.768;2023-09-07T00:48:40;18.50;61.90
5868;DHT22;2960;49.142;7.768;2023-09-07T00:51:07;18.50;61.90
5868;DHT22;2960;49.142;7.768;2023-09-07T00:53:36;18.40;61.90
5868;DHT22;2960;49.142;7.768;2023-09-07T00:56:04;18.40;62.00
5868;DHT22;2960;49.142;7.768;2023-09-07T00:58:32;18.40;62.00
5868;DHT22;2960;49.142;7.768;2023-09-07T01:01:00;18.40;62.10
5868;DHT22;2960;49.142;7.768;2023-09-07T01:03:28;18.30;62.00
5868;DHT22;2960;49.142;7.768;2023-09-07T01:06:01;18.30;62.00
5868;DHT22;2960;49.142;7.768;2023-09-07T01:08:35;18.30;63.00
5868;DHT22;2960;49.142;7.768;2023-09-07T01:11:13;18.30;62.30
5868;DHT22;2960;49.142;7.768;2023-09-07T01:13:42;18.20;62.10
5868;DHT22;2960;49.142;7.768;2023-09-07T01:16:10;18.20;62.20
5868;DHT22;2960;49.142;7.768;2023-09-07T01:18:39;18.20;62.50
5868;DHT22;2960;49.142;7.768;2023-09-07T01:21:06;18.20;62.20
5868;DHT22;2960;49.142;7.768;2023-09-07T01:23:36;18.10;62.10
5868;DHT22;2960;49.142;7.768;2023-09-07T01:26:08;18.10;62.10
5868;DHT22;2960;49.142;7.768;2023-09-07T01:28:36;18.10;62.10
5868;DHT22;2960;49.142;7.768;2023-09-07T01:31:03;18.10;62.10
5868;DHT22;2960;49.142;7.768;2023-09-07T01:33:31;18.10;62.10
5868;DHT22;2960;49.142;7.768;2023-09-07T01:35:59;18.10;62.10
5868;DHT22;2960;49.142;7.768;2023-09-07T01:38:26;18.00;62.00
5868;DHT22;2960;49.142;7.768;2023-09-07T01:40:55;18.00;62.00
5868;DHT22;2960;49.142;7.768;2023-09-07T01:43:22;17.90;62.00
5868;DHT22;2960;49.142;7.768;2023-09-07T01:45:49;17.90;62.00
5868;DHT22;2960;49.142;7.768;2023-09-07T01:48:16;17.90;62.00
5868;DHT22;2960;49.142;7.768;2023-09-07T01:50:44;17.90;62.00
5868;DHT22;2960;49.142;7.768;2023-09-07T01:53:11;17.90;62.10
5868;DHT22;2960;49.142;7.768;2023-09-07T01:55:38;17.80;62.00
5868;DHT22;2960;49.142;7.768;2023-09-07T01:58:06;17.80;62.10
5868;DHT22;2960;49.142;7.768;2023-09-07T02:00:36;17.80;62.20
5868;DHT22;2960;49.142;7.768;2023-09-07T02:03:04;17.70;62.20
5868;DHT22;2960;49.142;7.768;2023-09-07T02:05:32;17.70;62.30
5868;DHT22;2960;49.142;7.768;2023-09-07T02:07:59;17.70;62.30
5868;DHT22;2960;49.142;7.768;2023-09-07T02:10:26;17.70;62.40
5868;DHT22;2960;49.142;7.768;2023-09-07T02:12:53;17.70;62.50
5868;DHT22;2960;49.142;7.768;2023-09-07T02:15:23;17.60;62.40
5868;DHT22;2960;49.142;7.768;2023-09-07T02:17:51;17.60;63.30
5868;DHT22;2960;49.142;7.768;2023-09-07T02:20:18;17.60;62.50
5868;DHT22;2960;49.142;7.768;2023-09-07T02:22:45;17.50;62.50
5868;DHT22;2960;49.142;7.768;2023-09-07T02:25:13;17.50;62.50
5868;DHT22;2960;49.142;7.768;2023-09-07T02:27:40;17.50;62.60
5868;DHT22;2960;49.142;7.768;2023-09-07T02:30:08;17.50;62.60
5868;DHT22;2960;49.142;7.768;2023-09-07T02:32:37;17.50;62.60
5868;DHT22;2960;49.142;7.768;2023-09-07T02:35:05;17.40;62.50
5868;DHT22;2960;49.142;7.768;2023-09-07T02:37:35;17.40;62.60
5868;DHT22;2960;49.142;7.768;2023-09-07T02:40:02;17.40;62.60
5868;DHT22;2960;49.142;7.768;2023-09-07T02:42:32;17.30;62.50
5868;DHT22;2960;49.142;7.768;2023-09-07T02:44:59;17.30;62.50
5868;DHT22;2960;49.142;7.768;2023-09-07T02:47:26;17.30;62.50
5868;DHT22;2960;49.142;7.768;2023-09-07T02:49:54;17.30;62.50
5868;DHT22;2960;49.142;7.768;2023-09-07T02:52:21;17.30;62.50
5868;DHT22;2960;49.142;7.768;2023-09-07T02:54:49;17.20;62.40
5868;DHT22;2960;49.142;7.768;2023-09-07T02:57:16;17.20;62.30
5868;DHT22;2960;49.142;7.768;2023-09-07T02:59:43;17.20;63.10
5868;DHT22;2960;49.142;7.768;2023-09-07T03:02:10;17.20;62.40
5868;DHT22;2960;49.142;7.768;2023-09-07T03:04:37;17.10;62.40
5868;DHT22;2960;49.142;7.768;2023-09-07T03:07:06;17.10;62.40
5868;DHT22;2960;49.142;7.768;2023-09-07T03:09:34;17.10;62.60
5868;DHT22;2960;49.142;7.768;2023-09-07T03:12:02;17.10;62.50
5868;DHT22;2960;49.142;7.768;2023-09-07T03:14:31;17.00;62.50
5868;DHT22;2960;49.142;7.768;2023-09-07T03:16:59;17.00;62.50
5868;DHT22;2960;49.142;7.768;2023-09-07T03:19:26;17.00;62.60
5868;DHT22;2960;49.142;7.768;2023-09-07T03:21:53;17.00;62.60
5868;DHT22;2960;49.142;7.768;2023-09-07T03:24:22;16.90;62.60
5868;DHT22;2960;49.142;7.768;2023-09-07T03:26:49;16.90;62.70
5868;DHT22;2960;49.142;7.768;2023-09-07T03:29:16;16.90;62.70
5868;DHT22;2960;49.142;7.768;2023-09-07T03:31:43;16.80;62.70
5868;DHT22;2960;49.142;7.768;2023-09-07T03:34:11;16.80;62.70
5868;DHT22;2960;49.142;7.768;2023-09-07T03:36:38;16.80;62.70
5868;DHT22;2960;49.142;7.768;2023-09-07T03:39:05;16.80;62.70
5868;DHT22;2960;49.142;7.768;2023-09-07T03:41:35;16.70;62.60
5868;DHT22;2960;49.142;7.768;2023-09-07T03:44:02;16.70;62.60
5868;DHT22;2960;49.142;7.768;2023-09-07T03:46:29;16.70;62.70
5868;DHT22;2960;49.142;7.768;2023-09-07T03:48:56;16.70;62.70
5868;DHT22;2960;49.142;7.768;2023-09-07T03:51:23;16.60;62.70
5868;DHT22;2960;49.142;7.768;2023-09-07T03:53:50;16.60;62.70
5868;DHT22;2960;49.142;7.768;2023-09-07T03:56:17;16.60;62.70
5868;DHT22;2960;49.142;7.768;2023-09-07T03:58:46;16.60;63.60
5868;DHT22;2960;49.142;7.768;2023-09-07T04:01:13;16.50;62.70
5868;DHT22;2960;49.142;7.768;2023-09-07T04:03:40;16.50;62.70
5868;DHT22;2960;49.142;7.768;2023-09-07T04:06:08;16.50;62.70
5868;DHT22;2960;49.142;7.768;2023-09-07T04:08:35;16.50;62.70
5868;DHT22;2960;49.142;7.768;2023-09-07T04:11:03;16.50;62.70
5868;DHT22;2960;49.142;7.768;2023-09-07T04:13:31;16.40;62.70
5868;DHT22;2960;49.142;7.768;2023-09-07T04:15:59;16.40;62.70
5868;DHT22;2960;49.142;7.768;2023-09-07T04:18:26;16.40;62.70
5868;DHT22;2960;49.142;7.768;2023-09-07T04:20:56;16.40;62.70
5868;DHT22;2960;49.142;7.768;2023-09-07T04:23:31;16.30;62.70
5868;DHT22;2960;49.142;7.768;2023-09-07T04:26:05;16.30;62.80
5868;DHT22;2960;49.142;7.768;2023-09-07T04:28:33;16.30;62.80
5868;DHT22;2960;49.142;7.768;2023-09-07T04:31:01;16.30;62.80
5868;DHT22;2960;49.142;7.768;2023-09-07T04:33:30;16.20;62.80
5868;DHT22;2960;49.142;7.768;2023-09-07T04:36:05;16.20;62.90
5868;DHT22;2960;49.142;7.768;2023-09-07T04:38:33;16.20;62.90
5868;DHT22;2960;49.142;7.768;2023-09-07T04:41:06;16.20;63.00
5868;DHT22;2960;49.142;7.768;2023-09-07T04:43:33;16.20;63.00
5868;DHT22;2960;49.142;7.768;2023-09-07T04:46:02;16.10;62.90
5868;DHT22;2960;49.142;7.768;2023-09-07T04:48:29;16.10;62.90
5868;DHT22;2960;49.142;7.768;2023-09-07T04:51:00;16.10;62.90
5868;DHT22;2960;49.142;7.768;2023-09-07T04:53:29;16.10;62.90
5868;DHT22;2960;49.142;7.768;2023-09-07T04:55:57;16.00;62.80
5868;DHT22;2960;49.142;7.768;2023-09-07T04:58:25;16.00;62.80
5868;DHT22;2960;49.142;7.768;2023-09-07T05:00:52;16.00;62.90
5868;DHT22;2960;49.142;7.768;2023-09-07T05:03:21;16.00;62.90
5868;DHT22;2960;49.142;7.768;2023-09-07T05:05:52;16.00;62.90
5868;DHT22;2960;49.142;7.768;2023-09-07T05:08:20;15.90;62.80
5868;DHT22;2960;49.142;7.768;2023-09-07T05:10:48;15.90;62.70
5868;DHT22;2960;49.142;7.768;2023-09-07T05:13:15;15.90;62.90
5868;DHT22;2960;49.142;7.768;2023-09-07T05:15:47;15.90;63.00
5868;DHT22;2960;49.142;7.768;2023-09-07T05:18:15;15.90;63.00
5868;DHT22;2960;49.142;7.768;2023-09-07T05:20:45;15.90;63.10
5868;DHT22;2960;49.142;7.768;2023-09-07T05:23:14;15.80;63.10
5868;DHT22;2960;49.142;7.768;2023-09-07T05:25:43;15.80;63.20
5868;DHT22;2960;49.142;7.768;2023-09-07T05:28:13;15.80;63.40
5868;DHT22;2960;49.142;7.768;2023-09-07T05:30:41;15.80;63.40
5868;DHT22;2960;49.142;7.768;2023-09-07T05:33:09;15.80;63.50
5868;DHT22;2960;49.142;7.768;2023-09-07T05:35:36;15.80;64.40
5868;DHT22;2960;49.142;7.768;2023-09-07T05:38:05;15.80;63.70
5868;DHT22;2960;49.142;7.768;2023-09-07T05:40:33;15.80;64.50
5868;DHT22;2960;49.142;7.768;2023-09-07T05:43:01;15.80;63.80
5868;DHT22;2960;49.142;7.768;2023-09-07T05:45:29;15.90;63.90
5868;DHT22;2960;49.142;7.768;2023-09-07T05:47:57;15.90;63.80
5868;DHT22;2960;49.142;7.768;2023-09-07T05:50:24;15.90;63.80
5868;DHT22;2960;49.142;7.768;2023-09-07T05:52:51;16.00;63.90
5868;DHT22;2960;49.142;7.768;2023-09-07T05:55:20;16.10;63.90
5868;DHT22;2960;49.142;7.768;2023-09-07T05:57:48;16.20;64.00
5868;DHT22;2960;49.142;7.768;2023-09-07T06:00:16;16.20;63.90
5868;DHT22;2960;49.142;7.768;2023-09-07T06:02:45;16.30;63.90
5868;DHT22;2960;49.142;7.768;2023-09-07T06:05:12;16.40;63.90
5868;DHT22;2960;49.142;7.768;2023-09-07T06:07:40;16.40;63.90
5868;DHT22;2960;49.142;7.768;2023-09-07T06:10:07;16.50;63.90
5868;DHT22;2960;49.142;7.768;2023-09-07T06:12:36;16.60;64.00
5868;DHT22;2960;49.142;7.768;2023-09-07T06:15:03;16.70;64.00
5868;DHT22;2960;49.142;7.768;2023-09-07T06:17:31;16.80;64.00
5868;DHT22;2960;49.142;7.768;2023-09-07T06:19:58;16.90;64.00
5868;DHT22;2960;49.142;7.768;2023-09-07T06:22:26;17.00;64.10
5868;DHT22;2960;49.142;7.768;2023-09-07T06:24:53;17.00;64.10
5868;DHT22;2960;49.142;7.768;2023-09-07T06:27:20;17.10;64.20
5868;DHT22;2960;49.142;7.768;2023-09-07T06:29:49;17.20;64.40
5868;DHT22;2960;49.142;7.768;2023-09-07T06:32:16;17.30;64.50
5868;DHT22;2960;49.142;7.768;2023-09-07T06:34:44;17.40;64.50
5868;DHT22;2960;49.142;7.768;2023-09-07T06:37:11;17.50;64.60
5868;DHT22;2960;49.142;7.768;2023-09-07T06:39:39;17.60;64.70
5868;DHT22;2960;49.142;7.768;2023-09-07T06:42:08;17.70;64.70
5868;DHT22;2960;49.142;7.768;2023-09-07T06:44:36;17.80;65.50
5868;DHT22;2960;49.142;7.768;2023-09-07T06:47:04;17.90;64.70
5868;DHT22;2960;49.142;7.768;2023-09-07T06:49:32;18.10;64.80
5868;DHT22;2960;49.142;7.768;2023-09-07T06:51:59;18.20;64.80
5868;DHT22;2960;49.142;7.768;2023-09-07T06:54:28;18.30;64.90
5868;DHT22;2960;49.142;7.768;2023-09-07T06:56:55;18.40;64.90
5868;DHT22;2960;49.142;7.768;2023-09-07T06:59:22;18.50;64.90
5868;DHT22;2960;49.142;7.768;2023-09-07T07:01:49;18.70;65.00
5868;DHT22;2960;49.142;7.768;2023-09-07T07:04:17;18.80;65.00
5868;DHT22;2960;49.142;7.768;2023-09-07T07:06:45;18.90;65.10
5868;DHT22;2960;49.142;7.768;2023-09-07T07:09:14;19.00;65.10
5868;DHT22;2960;49.142;7.768;2023-09-07T07:11:42;19.20;65.20
5868;DHT22;2960;49.142;7.768;2023-09-07T07:14:09;19.30;65.20
5868;DHT22;2960;49.142;7.768;2023-09-07T07:16:37;19.40;65.20
5868;DHT22;2960;49.142;7.768;2023-09-07T07:19:04;19.60;65.20
5868;DHT22;2960;49.142;7.768;2023-09-07T07:21:33;19.70;65.30
5868;DHT22;2960;49.142;7.768;2023-09-07T07:24:00;19.90;65.30
5868;DHT22;2960;49.142;7.768;2023-09-07T07:26:27;20.00;65.40
5868;DHT22;2960;49.142;7.768;2023-09-07T07:28:54;20.10;65.40
5868;DHT22;2960;49.142;7.768;2023-09-07T07:31:24;20.30;65.50
5868;DHT22;2960;49.142;7.768;2023-09-07T07:33:52;20.40;65.50
5868;DHT22;2960;49.142;7.768;2023-09-07T07:36:20;20.50;66.40
5868;DHT22;2960;49.142;7.768;2023-09-07T07:38:49;20.70;65.80
5868;DHT22;2960;49.142;7.768;2023-09-07T07:41:16;20.70;65.60
5868;DHT22;2960;49.142;7.768;2023-09-07T07:43:43;20.80;65.80
5868;DHT22;2960;49.142;7.768;2023-09-07T07:46:10;20.90;66.00
5868;DHT22;2960;49.142;7.768;2023-09-07T07:48:41;21.00;66.20
5868;DHT22;2960;49.142;7.768;2023-09-07T07:51:08;21.10;66.30
5868;DHT22;2960;49.142;7.768;2023-09-07T07:53:35;21.20;66.40
5868;DHT22;2960;49.142;7.768;2023-09-07T07:56:04;21.40;66.60
5868;DHT22;2960;49.142;7.768;2023-09-07T07:58:31;21.50;66.60
5868;DHT22;2960;49.142;7.768;2023-09-07T08:00:58;21.70;66.60
5868;DHT22;2960;49.142;7.768;2023-09-07T08:03:27;21.90;67.40
5868;DHT22;2960;49.142;7.768;2023-09-07T08:05:54;22.00;66.30
5868;DHT22;2960;49.142;7.768;2023-09-07T08:08:21;22.20;66.20
5868;DHT22;2960;49.142;7.768;2023-09-07T08:10:48;22.30;66.80
5868;DHT22;2960;49.142;7.768;2023-09-07T08:13:16;22.50;65.90
5868;DHT22;2960;49.142;7.768;2023-09-07T08:15:44;22.70;65.90
5868;DHT22;2960;49.142;7.768;2023-09-07T08:18:13;22.80;65.80
5868;DHT22;2960;49.142;7.768;2023-09-07T08:20:40;23.00;65.70
5868;DHT22;2960;49.142;7.768;2023-09-07T08:23:07;23.10;65.40
5868;DHT22;2960;49.142;7.768;2023-09-07T08:25:36;23.20;65.00
5868;DHT22;2960;49.142;7.768;2023-09-07T08:28:05;23.30;64.70
5868;DHT22;2960;49.142;7.768;2023-09-07T08:30:34;23.50;64.70
5868;DHT22;2960;49.142;7.768;2023-09-07T08:33:03;23.60;64.40
5868;DHT22;2960;49.142;7.768;2023-09-07T08:35:32;23.70;64.40
5868;DHT22;2960;49.142;7.768;2023-09-07T08:38:00;23.90;64.20
5868;DHT22;2960;49.142;7.768;2023-09-07T08:40:31;24.00;63.90
5868;DHT22;2960;49.142;7.768;2023-09-07T08:43:00;24.20;63.60
5868;DHT22;2960;49.142;7.768;2023-09-07T08:45:40;24.30;63.30
5868;DHT22;2960;49.142;7.768;2023-09-07T08:48:10;24.50;63.00
5868;DHT22;2960;49.142;7.768;2023-09-07T08:50:39;24.60;62.70
5868;DHT22;2960;49.142;7.768;2023-09-07T08:53:08;24.80;62.60
5868;DHT22;2960;49.142;7.768;2023-09-07T08:55:35;24.90;62.30
5868;DHT22;2960;49.142;7.768;2023-09-07T08:58:03;25.00;61.90
5868;DHT22;2960;49.142;7.768;2023-09-07T09:00:32;25.20;61.60
5868;DHT22;2960;49.142;7.768;2023-09-07T09:03:04;25.30;61.40
5868;DHT22;2960;49.142;7.768;2023-09-07T09:05:32;25.40;61.10
5868;DHT22;2960;49.142;7.768;2023-09-07T09:08:01;25.60;60.90
5868;DHT22;2960;49.142;7.768;2023-09-07T09:10:29;25.70;61.30
5868;DHT22;2960;49.142;7.768;2023-09-07T09:12:57;25.90;60.20
5868;DHT22;2960;49.142;7.768;2023-09-07T09:15:25;26.00;59.90
5868;DHT22;2960;49.142;7.768;2023-09-07T09:17:54;26.10;59.80
5868;DHT22;2960;49.142;7.768;2023-09-07T09:20:23;26.20;59.60
5868;DHT22;2960;49.142;7.768;2023-09-07T09:22:53;26.30;59.40
5868;DHT22;2960;49.142;7.768;2023-09-07T09:25:21;26.40;59.10
5868;DHT22;2960;49.142;7.768;2023-09-07T09:27:48;26.50;59.50
5868;DHT22;2960;49.142;7.768;2023-09-07T09:30:15;26.60;58.80
5868;DHT22;2960;49.142;7.768;2023-09-07T09:32:43;26.70;58.60
5868;DHT22;2960;49.142;7.768;2023-09-07T09:35:11;26.80;58.50
5868;DHT22;2960;49.142;7.768;2023-09-07T09:37:45;26.90;58.30
5868;DHT22;2960;49.142;7.768;2023-09-07T09:40:14;27.00;58.10
5868;DHT22;2960;49.142;7.768;2023-09-07T09:42:43;27.10;57.90
5868;DHT22;2960;49.142;7.768;2023-09-07T09:45:11;27.20;57.80
5868;DHT22;2960;49.142;7.768;2023-09-07T09:47:40;27.40;58.30
5868;DHT22;2960;49.142;7.768;2023-09-07T09:50:12;27.50;57.40
5868;DHT22;2960;49.142;7.768;2023-09-07T09:52:39;27.60;57.30
5868;DHT22;2960;49.142;7.768;2023-09-07T09:55:07;27.70;56.80
5868;DHT22;2960;49.142;7.768;2023-09-07T09:57:38;27.70;56.70
5868;DHT22;2960;49.142;7.768;2023-09-07T10:00:06;27.80;56.50
5868;DHT22;2960;49.142;7.768;2023-09-07T10:02:49;27.90;56.30
5868;DHT22;2960;49.142;7.768;2023-09-07T10:05:19;28.00;56.10
5868;DHT22;2960;49.142;7.768;2023-09-07T10:07:48;28.00;55.80
5868;DHT22;2960;49.142;7.768;2023-09-07T10:10:18;28.10;55.60
5868;DHT22;2960;49.142;7.768;2023-09-07T10:12:51;28.20;55.30
5868;DHT22;2960;49.142;7.768;2023-09-07T10:15:21;28.30;54.70
5868;DHT22;2960;49.142;7.768;2023-09-07T10:17:48;28.40;54.50
5868;DHT22;2960;49.142;7.768;2023-09-07T10:20:19;28.40;54.10
5868;DHT22;2960;49.142;7.768;2023-09-07T10:22:50;28.40;54.00
5868;DHT22;2960;49.142;7.768;2023-09-07T10:25:21;28.50;53.80
5868;DHT22;2960;49.142;7.768;2023-09-07T10:27:49;28.50;53.80
5868;DHT22;2960;49.142;7.768;2023-09-07T10:30:16;28.50;53.60
5868;DHT22;2960;49.142;7.768;2023-09-07T10:32:49;28.60;53.60
5868;DHT22;2960;49.142;7.768;2023-09-07T10:35:19;28.60;53.50
5868;DHT22;2960;49.142;7.768;2023-09-07T10:37:48;28.70;53.40
5868;DHT22;2960;49.142;7.768;2023-09-07T10:40:24;28.70;53.90
5868;DHT22;2960;49.142;7.768;2023-09-07T10:43:01;28.80;53.30
5868;DHT22;2960;49.142;7.768;2023-09-07T10:45:29;28.80;53.00
5868;DHT22;2960;49.142;7.768;2023-09-07T10:47:57;28.80;52.60
5868;DHT22;2960;49.142;7.768;2023-09-07T10:50:25;28.80;52.60
5868;DHT22;2960;49.142;7.768;2023-09-07T10:52:54;28.90;52.60
5868;DHT22;2960;49.142;7.768;2023-09-07T10:55:21;28.90;52.60
5868;DHT22;2960;49.142;7.768;2023-09-07T10:57:49;28.90;52.60
5868;DHT22;2960;49.142;7.768;2023-09-07T11:00:16;29.00;52.50
5868;DHT22;2960;49.142;7.768;2023-09-07T11:02:43;29.00;52.50
5868;DHT22;2960;49.142;7.768;2023-09-07T11:05:11;29.00;52.40
5868;DHT22;2960;49.142;7.768;2023-09-07T11:07:39;29.10;52.40
5868;DHT22;2960;49.142;7.768;2023-09-07T11:10:09;29.10;52.30
5868;DHT22;2960;49.142;7.768;2023-09-07T11:12:38;29.10;52.10
5868;DHT22;2960;49.142;7.768;2023-09-07T11:15:08;29.20;52.20
5868;DHT22;2960;49.142;7.768;2023-09-07T11:17:37;29.20;52.20
5868;DHT22;2960;49.142;7.768;2023-09-07T11:20:07;29.20;52.10
5868;DHT22;2960;49.142;7.768;2023-09-07T11:22:36;29.30;52.00
5868;DHT22;2960;49.142;7.768;2023-09-07T11:25:06;29.40;52.00
5868;DHT22;2960;49.142;7.768;2023-09-07T11:27:34;29.40;52.50
5868;DHT22;2960;49.142;7.768;2023-09-07T11:30:01;29.40;51.60
5868;DHT22;2960;49.142;7.768;2023-09-07T11:32:34;29.40;51.60
5868;DHT22;2960;49.142;7.768;2023-09-07T11:35:01;29.40;51.60
5868;DHT22;2960;49.142;7.768;2023-09-07T11:37:33;29.50;51.70
5868;DHT22;2960;49.142;7.768;2023-09-07T11:40:00;29.50;51.60
5868;DHT22;2960;49.142;7.768;2023-09-07T11:42:31;29.50;51.50
5868;DHT22;2960;49.142;7.768;2023-09-07T11:44:58;29.60;51.50
5868;DHT22;2960;49.142;7.768;2023-09-07T11:47:25;29.50;51.30
5868;DHT22;2960;49.142;7.768;2023-09-07T11:49:52;29.60;51.50
5868;DHT22;2960;49.142;7.768;2023-09-07T11:52:19;29.60;51.50
5868;DHT22;2960;49.142;7.768;2023-09-07T11:54:46;29.60;51.50
5868;DHT22;2960;49.142;7.768;2023-09-07T11:57:13;29.60;51.60
5868;DHT22;2960;49.142;7.768;2023-09-07T11:59:43;29.70;52.10
5868;DHT22;2960;49.142;7.768;2023-09-07T12:02:10;29.70;51.50
5868;DHT22;2960;49.142;7.768;2023-09-07T12:04:40;29.70;51.40
5868;DHT22;2960;49.142;7.768;2023-09-07T12:07:07;29.80;51.50
5868;DHT22;2960;49.142;7.768;2023-09-07T12:09:34;29.80;51.40
5868;DHT22;2960;49.142;7.768;2023-09-07T12:12:02;29.80;51.40
5868;DHT22;2960;49.142;7.768;2023-09-07T12:14:30;29.80;51.40
5868;DHT22;2960;49.142;7.768;2023-09-07T12:16:59;29.80;51.30
5868;DHT22;2960;49.142;7.768;2023-09-07T12:19:26;29.90;51.30
5868;DHT22;2960;49.142;7.768;2023-09-07T12:21:53;29.80;51.20
5868;DHT22;2960;49.142;7.768;2023-09-07T12:24:21;29.80;51.10
5868;DHT22;2960;49.142;7.768;2023-09-07T12:26:48;29.80;50.80
5868;DHT22;2960;49.142;7.768;2023-09-07T12:29:15;29.70;50.70
5868;DHT22;2960;49.142;7.768;2023-09-07T12:31:42;29.70;51.50
5868;DHT22;2960;49.142;7.768;2023-09-07T12:34:12;29.60;50.80
5868;DHT22;2960;49.142;7.768;2023-09-07T12:36:39;29.60;50.90
5868;DHT22;2960;49.142;7.768;2023-09-07T12:39:09;29.60;50.90
5868;DHT22;2960;49.142;7.768;2023-09-07T12:41:38;29.60;50.90
5868;DHT22;2960;49.142;7.768;2023-09-07T12:44:06;29.60;50.80
5868;DHT22;2960;49.142;7.768;2023-09-07T12:46:34;29.70;50.80
5868;DHT22;2960;49.142;7.768;2023-09-07T12:49:04;29.70;50.70
5868;DHT22;2960;49.142;7.768;2023-09-07T12:51:33;29.70;50.70
5868;DHT22;2960;49.142;7.768;2023-09-07T12:54:00;29.70;50.60
5868;DHT22;2960;49.142;7.768;2023-09-07T12:56:27;29.70;50.50
5868;DHT22;2960;49.142;7.768;2023-09-07T12:58:54;29.70;50.50
5868;DHT22;2960;49.142;7.768;2023-09-07T13:01:22;29.70;50.30
5868;DHT22;2960;49.142;7.768;2023-09-07T13:03:50;29.70;50.30
5868;DHT22;2960;49.142;7.768;2023-09-07T13:06:17;29.70;50.30
5868;DHT22;2960;49.142;7.768;2023-09-07T13:08:45;29.70;50.40
5868;DHT22;2960;49.142;7.768;2023-09-07T13:11:14;29.80;50.50
5868;DHT22;2960;49.142;7.768;2023-09-07T13:13:42;29.70;50.40
5868;DHT22;2960;49.142;7.768;2023-09-07T13:16:09;29.80;50.50
5868;DHT22;2960;49.142;7.768;2023-09-07T13:18:37;29.90;51.00
5868;DHT22;2960;49.142;7.768;2023-09-07T13:21:07;29.90;50.90
5868;DHT22;2960;49.142;7.768;2023-09-07T13:23:34;29.90;50.30
5868;DHT22;2960;49.142;7.768;2023-09-07T13:26:03;29.90;50.20
5868;DHT22;2960;49.142;7.768;2023-09-07T13:28:31;29.90;50.10
5868;DHT22;2960;49.142;7.768;2023-09-07T13:30:59;30.00;50.20
5868;DHT22;2960;49.142;7.768;2023-09-07T13:33:29;30.00;50.10
5868;DHT22;2960;49.142;7.768;2023-09-07T13:35:56;30.00;50.10
5868;DHT22;2960;49.142;7.768;2023-09-07T13:38:23;30.00;50.10
5868;DHT22;2960;49.142;7.768;2023-09-07T13:40:50;30.00;50.00
5868;DHT22;2960;49.142;7.768;2023-09-07T13:43:19;30.00;50.40
5868;DHT22;2960;49.142;7.768;2023-09-07T13:45:46;30.10;49.90
5868;DHT22;2960;49.142;7.768;2023-09-07T13:48:13;30.10;49.90
5868;DHT22;2960;49.142;7.768;2023-09-07T13:50:40;30.10;49.90
5868;DHT22;2960;49.142;7.768;2023-09-07T13:53:08;30.10;49.90
5868;DHT22;2960;49.142;7.768;2023-09-07T13:55:35;30.10;49.80
5868;DHT22;2960;49.142;7.768;2023-09-07T13:58:05;30.10;49.80
5868;DHT22;2960;49.142;7.768;2023-09-07T14:00:33;30.10;49.80
5868;DHT22;2960;49.142;7.768;2023-09-07T14:03:01;30.10;49.70
5868;DHT22;2960;49.142;7.768;2023-09-07T14:05:28;30.10;49.70
5868;DHT22;2960;49.142;7.768;2023-09-07T14:07:55;30.10;49.80
5868;DHT22;2960;49.142;7.768;2023-09-07T14:10:23;30.10;49.80
5868;DHT22;2960;49.142;7.768;2023-09-07T14:12:50;30.10;49.70
5868;DHT22;2960;49.142;7.768;2023-09-07T14:15:17;30.10;49.80
5868;DHT22;2960;49.142;7.768;2023-09-07T14:17:46;30.10;49.70
5868;DHT22;2960;49.142;7.768;2023-09-07T14:20:13;30.10;49.70
5868;DHT22;2960;49.142;7.768;2023-09-07T14:22:40;30.10;49.70
5868;DHT22;2960;49.142;7.768;2023-09-07T14:25:08;30.10;49.60
5868;DHT22;2960;49.142;7.768;2023-09-07T14:27:35;30.10;49.50
5868;DHT22;2960;49.142;7.768;2023-09-07T14:30:02;30.10;49.50
5868;DHT22;2960;49.142;7.768;2023-09-07T14:32:30;30.10;49.50
5868;DHT22;2960;49.142;7.768;2023-09-07T14:34:58;30.00;49.40
5868;DHT22;2960;49.142;7.768;2023-09-07T14:37:25;30.00;49.40
5868;DHT22;2960;49.142;7.768;2023-09-07T14:39:52;30.00;49.40
5868;DHT22;2960;49.142;7.768;2023-09-07T14:42:23;30.00;49.40
5868;DHT22;2960;49.142;7.768;2023-09-07T14:44:50;30.00;49.40
5868;DHT22;2960;49.142;7.768;2023-09-07T14:47:18;30.00;49.40
5868;DHT22;2960;49.142;7.768;2023-09-07T14:49:50;30.00;50.00
5868;DHT22;2960;49.142;7.768;2023-09-07T14:52:20;29.90;49.20
5868;DHT22;2960;49.142;7.768;2023-09-07T14:54:48;29.90;49.20
5868;DHT22;2960;49.142;7.768;2023-09-07T14:57:15;29.90;49.30
5868;DHT22;2960;49.142;7.768;2023-09-07T14:59:42;29.90;49.30
5868;DHT22;2960;49.142;7.768;2023-09-07T15:02:09;29.90;49.40
5868;DHT22;2960;49.142;7.768;2023-09-07T15:04:37;29.90;49.40
5868;DHT22;2960;49.142;7.768;2023-09-07T15:07:04;29.80;49.40
5868;DHT22;2960;49.142;7.768;2023-09-07T15:09:33;29.80;49.40
5868;DHT22;2960;49.142;7.768;2023-09-07T15:12:00;29.80;49.40
5868;DHT22;2960;49.142;7.768;2023-09-07T15:14:28;29.70;49.30
5868;DHT22;2960;49.142;7.768;2023-09-07T15:16:55;29.70;49.30
5868;DHT22;2960;49.142;7.768;2023-09-07T15:19:22;29.70;49.30
5868;DHT22;2960;49.142;7.768;2023-09-07T15:21:50;29.60;49.30
5868;DHT22;2960;49.142;7.768;2023-09-07T15:24:18;29.60;49.30
5868;DHT22;2960;49.142;7.768;2023-09-07T15:26:46;29.60;49.30
5868;DHT22;2960;49.142;7.768;2023-09-07T15:29:14;29.60;49.30
5868;DHT22;2960;49.142;7.768;2023-09-07T15:31:41;29.60;49.30
5868;DHT22;2960;49.142;7.768;2023-09-07T15:34:08;29.50;49.30
5868;DHT22;2960;49.142;7.768;2023-09-07T15:36:35;29.50;49.30
5868;DHT22;2960;49.142;7.768;2023-09-07T15:39:02;29.50;49.30
5868;DHT22;2960;49.142;7.768;2023-09-07T15:41:29;29.40;49.20
5868;DHT22;2960;49.142;7.768;2023-09-07T15:43:58;29.40;49.20
5868;DHT22;2960;49.142;7.768;2023-09-07T15:46:25;29.40;49.30
5868;DHT22;2960;49.142;7.768;2023-09-07T15:48:52;29.40;49.30
5868;DHT22;2960;49.142;7.768;2023-09-07T15:51:20;29.40;49.20
5868;DHT22;2960;49.142;7.768;2023-09-07T15:53:47;29.40;49.20
5868;DHT22;2960;49.142;7.768;2023-09-07T15:56:14;29.30;49.20
5868;DHT22;2960;49.142;7.768;2023-09-07T15:58:42;29.30;49.10
5868;DHT22;2960;49.142;7.768;2023-09-07T16:01:11;29.30;49.10
5868;DHT22;2960;49.142;7.768;2023-09-07T16:03:38;29.30;49.10
5868;DHT22;2960;49.142;7.768;2023-09-07T16:06:05;29.30;49.10
5868;DHT22;2960;49.142;7.768;2023-09-07T16:08:32;29.20;49.10